• Join FlightAware (Why Join?)
  • Login
  • US Flag GB Flag 
05:52 EST


 

Airport Tracker/Info


-or-


 

Live Flight TrackerFlight Track Log ✈ UAL6118 ✈ 08-May-2013 ✈ KCVG - KORD

Flight Track Log - Related Links

Times and Time Zones

All times are in EDT time to prevent confusion due to time zone crossing. See the UAL6118 flight status page for this flight to view local times or setup timezone preferences in your user account.

Time Position Orientation Groundspeed Altitude Reporting Facility
EDT Latitude Longitude Course Direction KTS MPH feet Rate Location/Type
21:39 39.0500 -84.6667 351° North 173 199 1,200  Level Cincinnati TRACON
21:40 39.0500 -84.7333 270° West 192 221 3,400 2,640 Climbing Cincinnati TRACON
21:41 39.0500 -84.8167 270° West 250 288 6,000 2,640 Climbing Cincinnati TRACON
21:43 38.9602 -84.8559 308° West  Level FlightAware Approximate
21:43 39.0786 -84.9406 287° West 251 289 10,300  Level Chicago Center
21:44 39.0398 -84.8879 351° North  Level FlightAware Approximate
21:44 39.1642 -84.9519 354° North 294 338 11,300  Level Chicago Center
21:45 39.1244 -84.9049 351° North  Level FlightAware Approximate
21:45 39.2578 -84.9697 352° North 330 380 12,600  Level Chicago Center
21:46 39.3572 -84.9853 353° North 354 407 14,500 2,280 Climbing Indianapolis Center
21:47 39.4522 -85.0014 353° North 350 403 17,300 2,400 Climbing Indianapolis Center
21:48 39.5431 -85.0169 352° North 335 386 19,500 1,980 Climbing Indianapolis Center
21:49 39.6308 -85.0503 344° North 331 381 21,400 1,200 Climbing Indianapolis Center
21:50 39.7411 -85.1125 337° Northwest 358 412 22,000 240 Climbing Indianapolis Center
21:51 39.8433 -85.1708 336° Northwest 392 451 22,000  Level Indianapolis Center
21:52 39.9469 -85.2286 337° Northwest 407 468 22,000  Level Indianapolis Center
21:53 40.0497 -85.2867 337° Northwest 406 467 22,000  Level Indianapolis Center
21:54 40.1475 -85.3431 336° Northwest 393 452 22,000  Level Indianapolis Center
21:55 40.2444 -85.4025 335° Northwest 389 448 22,000  Level Indianapolis Center
21:56 40.3281 -85.4958 320° Northwest 395 455 22,000  Level Indianapolis Center
21:57 40.4300 -85.6092 320° Northwest 401 461 22,000  Level Indianapolis Center
21:58 40.5211 -85.6881 327° Northwest 402 463 22,000  Level Chicago Center
21:59 40.6278 -85.7297 343° North 403 464 22,000  Level Chicago Center
22:00 40.7308 -85.7703 343° North 404 465 22,000  Level Chicago Center
22:01 40.8597 -85.8203 344° North 402 463 22,000  Level Chicago Center
22:02 40.9664 -85.8653 342° North 401 461 22,000  Level Chicago Center
22:03 41.0342 -85.9833 307° West 406 467 22,000  Level Chicago Center
22:04 41.0547 -86.1347 280° West 415 478 22,000  Level Chicago Center
22:05 41.0750 -86.2858 280° West 415 478 22,000  Level Chicago Center
22:06 41.0986 -86.4386 282° West 421 484 22,000 -720 Level Chicago Center
22:07 41.1222 -86.5914 282° West 421 484 20,600 -2,160 Descending Chicago Center
22:09 41.1764 -86.7411 296° West 387 445 17,600 -2,820 Descending Chicago Center
22:10 41.2281 -86.8611 300° West 378 435 14,900 -2,640 Descending Chicago Center
22:11 41.2753 -86.9769 299° West 360 414 12,300 -1,920 Descending Chicago Center
22:12 41.3233 -87.0925 299° West 358 412 11,000 -660 Descending Chicago Center
22:13 41.3681 -87.1981 299° West 337 388 11,000  Level Chicago Center
22:13 41.4333 -87.2667 322° Northwest 339 390 11,100  Climbing Chicago TRACON
22:14 41.5000 -87.3667 312° West 342 394 11,100  Level Chicago TRACON
22:15 41.5833 -87.4500 323° Northwest 344 396 11,100 -120 Level Chicago TRACON
22:16 41.5956 -87.4614 325° Northwest 341 392 11,000 -120 Descending Chicago Center
22:17 41.6694 -87.5431 320° Northwest 347 399 11,000 -120 Level Chicago Center
22:18 41.7414 -87.6253 320° Northwest 346 398 10,800 -600 Descending Chicago Center
22:18 41.7833 -87.6667 324° Northwest 291 335 10,100 -1,560 Descending Chicago TRACON
22:19 41.8333 -87.7333 315° West 263 303 8,400 -1,500 Descending Chicago TRACON
22:20 41.8833 -87.8167 309° West 254 292 7,200 -660 Descending Chicago TRACON
22:21 41.8833 -87.8833 270° West 206 237 7,100 -60 Descending Chicago TRACON
22:22 41.8833 -87.9667 270° West 202 232 7,100 -420 Level Chicago TRACON
22:23 41.8833 -88.0333 270° West 194 223 6,300 -1,020 Descending Chicago TRACON
22:24 41.8833 -88.1000 270° West 191 220 5,100 -1,140 Descending Chicago TRACON
22:25 41.8836 -88.1403 271° West 192 221 4,500 -720 Descending Chicago Center
22:26 41.8992 -88.1975 290° West 187 215 4,000 -300 Descending Chicago Center
22:27 41.9497 -88.1969 360° North 183 211 4,000 -300 Level Chicago Center
22:28 41.9686 -88.1247 71° East 192 221 3,400 -600 Descending Chicago Center
22:28 41.9667 -88.1000 96° East 179 206 3,200 -840 Descending Chicago TRACON
22:29 41.9667 -88.0333 90° East 173 199 2,300 -900 Descending Chicago TRACON
22:30 41.9667 -87.9833 90° East 127 146 1,500 -780 Descending Chicago TRACON
22:31 41.9667 -87.9333 90° East 128 147 800 -720 Descending Chicago TRACON